Main page
METAR-TAF:

METAR-TAF

Airports :

St. Gallen–Altenrhein Airport

St. Gallen, Switzerland

latitude: 47-29-06N, longitude: 009-33-43E, elevation: 398 m

Current weather observation

The report was made 34 minutes ago, at 01:50 UTC
Wind 4 kt from the West/Southwest, varying between Southwest and West/Northwest
Temperature 13°C
Humidity 67%
Pressure 1024 hPa
Visibility 10 km or more
Overcast at a height of 5000 ft

METAR: LSZR 220150Z AUTO 25004KT 220V290 9999 OVC050 13/07 Q1024

Time: 04:24 (02:24 UTC)

Forecast

The report was made 9 hours and 39 minutes ago, at 16:45 UTC
Forecast valid from 21 at 16 UTC to 21 at 24 UTC
Wind 10 kt from the West
Visibility 10 km or more
Scattered clouds at a height of 7000 ft
Broken clouds at a height of 9000 ft
Temporary
from 21 at 17 UTC to 21 at 22 UTC
Wind 15 kt from the West with gusts up to 30 kt
rain showers

TAF: LSZR 211645Z 2116/2124 27010KT 9999 SCT070 BKN090 TEMPO 2117/2122 28015G30KT SHRA

Weather observations and forecasts of more than 4000 airports (METAR and TAF reports).

The available stations are represented by yellow and red dots on the map.

Hover mouse over dot to see the name of the station.

Then click to see weather observations and forecasts.

To change the map : click on the green buttons with a black cross to zoom in, on the green button with a dash to zoom out, or on the green arrows for adjacent maps.


METAR-TAF: